sensor_id;sensor_type;location;lat;lon;timestamp;pressure;altitude;pressure_sealevel;temperature;humidity
47897;BME280;39629;51.400;5.494;2023-05-02T00:02:57;101833.00;;;10.88;100.00
47897;BME280;39629;51.400;5.494;2023-05-02T00:08:00;101835.63;;;10.89;100.00
47897;BME280;39629;51.400;5.494;2023-05-02T00:13:02;101840.03;;;10.89;100.00
47897;BME280;39629;51.400;5.494;2023-05-02T00:18:03;101857.59;;;10.88;100.00
47897;BME280;39629;51.400;5.494;2023-05-02T00:23:06;101868.06;;;10.85;100.00
47897;BME280;39629;51.400;5.494;2023-05-02T00:28:08;101868.84;;;10.81;100.00
47897;BME280;39629;51.400;5.494;2023-05-02T00:33:10;101875.03;;;10.83;100.00
47897;BME280;39629;51.400;5.494;2023-05-02T00:38:15;101880.28;;;10.80;100.00
47897;BME280;39629;51.400;5.494;2023-05-02T00:43:16;101878.50;;;10.79;100.00
47897;BME280;39629;51.400;5.494;2023-05-02T00:48:18;101883.75;;;10.76;100.00
47897;BME280;39629;51.400;5.494;2023-05-02T00:53:22;101881.97;;;10.77;100.00
47897;BME280;39629;51.400;5.494;2023-05-02T00:58:24;101883.66;;;10.73;100.00
47897;BME280;39629;51.400;5.494;2023-05-02T01:03:33;101876.66;;;10.72;100.00
47897;BME280;39629;51.400;5.494;2023-05-02T01:08:45;101891.53;;;10.70;100.00
47897;BME280;39629;51.400;5.494;2023-05-02T01:13:50;101887.16;;;10.69;100.00
47897;BME280;39629;51.400;5.494;2023-05-02T01:18:53;101882.66;;;10.63;100.00
47897;BME280;39629;51.400;5.494;2023-05-02T01:24:03;101890.50;;;10.59;100.00
47897;BME280;39629;51.400;5.494;2023-05-02T01:29:08;101884.38;;;10.58;100.00
47897;BME280;39629;51.400;5.494;2023-05-02T01:34:11;101881.59;;;10.47;100.00
47897;BME280;39629;51.400;5.494;2023-05-02T01:39:18;101888.53;;;10.42;100.00
47897;BME280;39629;51.400;5.494;2023-05-02T01:44:23;101888.44;;;10.34;100.00
47897;BME280;39629;51.400;5.494;2023-05-02T01:49:25;101888.41;;;10.33;100.00
47897;BME280;39629;51.400;5.494;2023-05-02T01:54:28;101894.31;;;10.18;100.00
47897;BME280;39629;51.400;5.494;2023-05-02T01:59:32;101905.41;;;10.00;100.00
47897;BME280;39629;51.400;5.494;2023-05-02T02:04:36;101906.97;;;9.87;100.00
47897;BME280;39629;51.400;5.494;2023-05-02T02:09:38;101904.94;;;9.72;100.00
47897;BME280;39629;51.400;5.494;2023-05-02T02:14:47;101920.50;;;9.60;100.00
47897;BME280;39629;51.400;5.494;2023-05-02T02:19:52;101928.41;;;9.61;100.00
47897;BME280;39629;51.400;5.494;2023-05-02T02:24:56;101926.78;;;9.68;100.00
47897;BME280;39629;51.400;5.494;2023-05-02T02:30:01;101933.00;;;9.73;100.00
47897;BME280;39629;51.400;5.494;2023-05-02T02:35:04;101925.13;;;9.73;100.00
47897;BME280;39629;51.400;5.494;2023-05-02T02:40:10;101944.41;;;9.75;100.00
47897;BME280;39629;51.400;5.494;2023-05-02T02:45:23;101937.50;;;9.79;100.00
47897;BME280;39629;51.400;5.494;2023-05-02T02:50:30;101944.47;;;9.78;100.00
47897;BME280;39629;51.400;5.494;2023-05-02T02:55:39;101944.63;;;9.86;100.00
47897;BME280;39629;51.400;5.494;2023-05-02T03:00:47;101954.22;;;9.85;100.00
47897;BME280;39629;51.400;5.494;2023-05-02T03:05:49;101955.13;;;9.84;100.00
47897;BME280;39629;51.400;5.494;2023-05-02T03:10:51;101969.09;;;9.83;100.00
47897;BME280;39629;51.400;5.494;2023-05-02T03:21:31;101981.38;;;9.83;100.00
47897;BME280;39629;51.400;5.494;2023-05-02T03:26:39;101989.34;;;9.87;100.00
47897;BME280;39629;51.400;5.494;2023-05-02T03:31:44;101989.34;;;9.87;100.00
47897;BME280;39629;51.400;5.494;2023-05-02T03:36:47;101988.50;;;9.88;100.00
47897;BME280;39629;51.400;5.494;2023-05-02T03:41:50;101993.78;;;9.90;100.00
47897;BME280;39629;51.400;5.494;2023-05-02T03:46:55;101991.13;;;9.88;100.00
47897;BME280;39629;51.400;5.494;2023-05-02T03:51:59;101991.16;;;9.92;100.00
47897;BME280;39629;51.400;5.494;2023-05-02T03:57:06;101997.31;;;9.92;100.00
47897;BME280;39629;51.400;5.494;2023-05-02T04:02:08;102007.00;;;9.95;100.00
47897;BME280;39629;51.400;5.494;2023-05-02T04:07:18;102017.53;;;9.95;100.00
47897;BME280;39629;51.400;5.494;2023-05-02T04:12:31;102013.13;;;9.95;100.00
47897;BME280;39629;51.400;5.494;2023-05-02T04:17:33;102024.56;;;9.96;100.00
47897;BME280;39629;51.400;5.494;2023-05-02T04:22:36;102022.81;;;9.98;100.00
47897;BME280;39629;51.400;5.494;2023-05-02T04:27:40;102031.59;;;9.97;100.00
47897;BME280;39629;51.400;5.494;2023-05-02T04:32:45;102029.81;;;9.96;100.00
47897;BME280;39629;51.400;5.494;2023-05-02T04:37:50;102050.84;;;9.96;100.00
47897;BME280;39629;51.400;5.494;2023-05-02T04:42:52;102049.22;;;10.01;100.00
47897;BME280;39629;51.400;5.494;2023-05-02T04:47:57;102072.78;;;9.98;100.00
47897;BME280;39629;51.400;5.494;2023-05-02T04:53:00;102082.22;;;9.86;100.00
47897;BME280;39629;51.400;5.494;2023-05-02T04:58:02;102086.88;;;9.57;100.00
47897;BME280;39629;51.400;5.494;2023-05-02T05:03:06;102103.44;;;9.53;100.00
47897;BME280;39629;51.400;5.494;2023-05-02T05:08:09;102112.19;;;9.53;100.00
47897;BME280;39629;51.400;5.494;2023-05-02T05:13:11;102109.56;;;9.53;100.00
47897;BME280;39629;51.400;5.494;2023-05-02T05:18:15;102132.69;;;9.70;100.00
47897;BME280;39629;51.400;5.494;2023-05-02T05:23:18;102134.38;;;9.65;100.00
47897;BME280;39629;51.400;5.494;2023-05-02T05:28:20;102135.97;;;9.58;100.00
47897;BME280;39629;51.400;5.494;2023-05-02T05:33:23;102156.06;;;9.56;100.00
47897;BME280;39629;51.400;5.494;2023-05-02T05:38:26;102150.75;;;9.54;100.00
47897;BME280;39629;51.400;5.494;2023-05-02T05:43:28;102153.13;;;9.82;100.00
47897;BME280;39629;51.400;5.494;2023-05-02T05:48:31;102164.41;;;10.65;100.00
47897;BME280;39629;51.400;5.494;2023-05-02T05:53:35;102162.75;;;10.73;100.00
47897;BME280;39629;51.400;5.494;2023-05-02T05:58:39;102164.47;;;11.20;100.00
47897;BME280;39629;51.400;5.494;2023-05-02T06:03:42;102176.34;;;11.48;100.00
47897;BME280;39629;51.400;5.494;2023-05-02T06:08:46;102174.94;;;11.75;100.00
47897;BME280;39629;51.400;5.494;2023-05-02T06:13:48;102183.06;;;11.92;100.00
47897;BME280;39629;51.400;5.494;2023-05-02T06:18:50;102187.53;;;11.98;100.00
47897;BME280;39629;51.400;5.494;2023-05-02T06:23:54;102185.34;;;12.35;100.00
47897;BME280;39629;51.400;5.494;2023-05-02T06:28:55;102196.56;;;12.95;100.00
47897;BME280;39629;51.400;5.494;2023-05-02T06:33:57;102204.81;;;13.37;100.00
47897;BME280;39629;51.400;5.494;2023-05-02T06:39:00;102202.34;;;12.55;100.00
47897;BME280;39629;51.400;5.494;2023-05-02T06:44:02;102210.94;;;13.29;100.00
47897;BME280;39629;51.400;5.494;2023-05-02T06:49:03;102222.97;;;12.92;100.00
47897;BME280;39629;51.400;5.494;2023-05-02T06:54:06;102227.84;;;13.50;100.00
47897;BME280;39629;51.400;5.494;2023-05-02T06:59:08;102233.28;;;13.69;100.00
47897;BME280;39629;51.400;5.494;2023-05-02T07:04:11;102246.63;;;12.81;100.00
47897;BME280;39629;51.400;5.494;2023-05-02T07:09:14;102259.88;;;12.83;100.00
47897;BME280;39629;51.400;5.494;2023-05-02T07:14:16;102260.41;;;11.89;100.00
47897;BME280;39629;51.400;5.494;2023-05-02T07:19:17;102278.09;;;11.38;100.00
47897;BME280;39629;51.400;5.494;2023-05-02T07:24:20;102285.78;;;11.80;100.00
47897;BME280;39629;51.400;5.494;2023-05-02T07:29:22;102292.44;;;12.16;100.00
47897;BME280;39629;51.400;5.494;2023-05-02T07:34:24;102290.84;;;11.67;100.00
47897;BME280;39629;51.400;5.494;2023-05-02T07:39:27;102303.41;;;11.82;100.00
47897;BME280;39629;51.400;5.494;2023-05-02T07:44:30;102309.78;;;11.97;100.00
47897;BME280;39629;51.400;5.494;2023-05-02T07:49:32;102306.19;;;12.54;100.00
47897;BME280;39629;51.400;5.494;2023-05-02T07:54:35;102306.78;;;11.73;100.00
47897;BME280;39629;51.400;5.494;2023-05-02T07:59:37;102307.44;;;11.60;100.00
47897;BME280;39629;51.400;5.494;2023-05-02T08:04:39;102316.16;;;12.11;100.00
47897;BME280;39629;51.400;5.494;2023-05-02T08:09:42;102308.06;;;12.00;100.00
47897;BME280;39629;51.400;5.494;2023-05-02T08:14:44;102317.75;;;12.00;100.00
47897;BME280;39629;51.400;5.494;2023-05-02T08:19:45;102327.91;;;11.75;100.00
47897;BME280;39629;51.400;5.494;2023-05-02T08:24:48;102329.16;;;11.99;100.00
47897;BME280;39629;51.400;5.494;2023-05-02T08:29:50;102330.25;;;11.56;100.00
47897;BME280;39629;51.400;5.494;2023-05-02T08:34:53;102349.78;;;11.19;100.00
47897;BME280;39629;51.400;5.494;2023-05-02T08:39:56;102370.38;;;10.54;100.00
47897;BME280;39629;51.400;5.494;2023-05-02T08:44:58;102367.97;;;10.64;100.00
47897;BME280;39629;51.400;5.494;2023-05-02T08:50:00;102383.88;;;11.10;100.00
47897;BME280;39629;51.400;5.494;2023-05-02T08:55:06;102375.44;;;11.28;100.00
47897;BME280;39629;51.400;5.494;2023-05-02T09:00:08;102384.84;;;11.15;100.00
47897;BME280;39629;51.400;5.494;2023-05-02T09:05:11;102384.22;;;11.30;100.00
47897;BME280;39629;51.400;5.494;2023-05-02T09:10:16;102386.81;;;11.75;100.00
47897;BME280;39629;51.400;5.494;2023-05-02T09:15:19;102403.06;;;11.50;100.00
47897;BME280;39629;51.400;5.494;2023-05-02T09:20:20;102396.94;;;12.03;100.00
47897;BME280;39629;51.400;5.494;2023-05-02T09:25:23;102406.03;;;12.20;100.00
47897;BME280;39629;51.400;5.494;2023-05-02T09:30:25;102415.84;;;12.92;100.00
47897;BME280;39629;51.400;5.494;2023-05-02T09:35:27;102414.84;;;12.22;100.00
47897;BME280;39629;51.400;5.494;2023-05-02T09:40:30;102409.25;;;13.31;100.00
47897;BME280;39629;51.400;5.494;2023-05-02T09:45:32;102420.75;;;14.28;100.00
47897;BME280;39629;51.400;5.494;2023-05-02T09:50:35;102425.50;;;13.70;100.00
47897;BME280;39629;51.400;5.494;2023-05-02T09:55:38;102431.16;;;14.05;100.00
47897;BME280;39629;51.400;5.494;2023-05-02T10:00:41;102432.47;;;13.58;100.00
47897;BME280;39629;51.400;5.494;2023-05-02T10:05:44;102420.03;;;14.59;100.00
47897;BME280;39629;51.400;5.494;2023-05-02T10:10:51;102416.44;;;14.43;100.00
47897;BME280;39629;51.400;5.494;2023-05-02T10:15:59;102423.28;;;14.13;100.00
47897;BME280;39629;51.400;5.494;2023-05-02T10:21:10;102436.31;;;13.07;100.00
47897;BME280;39629;51.400;5.494;2023-05-02T10:26:14;102436.97;;;12.90;100.00
47897;BME280;39629;51.400;5.494;2023-05-02T10:31:17;102439.28;;;13.38;100.00
47897;BME280;39629;51.400;5.494;2023-05-02T10:36:19;102438.94;;;15.18;100.00
47897;BME280;39629;51.400;5.494;2023-05-02T10:41:24;102425.59;;;15.08;94.46
47897;BME280;39629;51.400;5.494;2023-05-02T10:46:31;102446.94;;;13.91;96.45
47897;BME280;39629;51.400;5.494;2023-05-02T10:51:35;102426.16;;;12.72;100.00
47897;BME280;39629;51.400;5.494;2023-05-02T10:57:06;102431.38;;;14.31;97.62
47897;BME280;39629;51.400;5.494;2023-05-02T11:07:43;102436.44;;;16.01;79.36
47897;BME280;39629;51.400;5.494;2023-05-02T11:12:48;102434.22;;;14.69;81.20
47897;BME280;39629;51.400;5.494;2023-05-02T11:17:59;102458.13;;;13.67;86.70
47897;BME280;39629;51.400;5.494;2023-05-02T11:23:22;102457.13;;;13.57;90.29
47897;BME280;39629;51.400;5.494;2023-05-02T11:28:41;102451.84;;;14.57;85.71
47897;BME280;39629;51.400;5.494;2023-05-02T11:33:54;102460.16;;;13.90;82.70
47897;BME280;39629;51.400;5.494;2023-05-02T11:38:56;102452.66;;;14.45;78.42
47897;BME280;39629;51.400;5.494;2023-05-02T11:44:03;102444.38;;;16.02;75.61
47897;BME280;39629;51.400;5.494;2023-05-02T11:49:05;102438.16;;;16.59;61.59
47897;BME280;39629;51.400;5.494;2023-05-02T11:54:07;102449.84;;;14.24;64.04
47897;BME280;39629;51.400;5.494;2023-05-02T11:59:10;102448.75;;;15.48;63.48
47897;BME280;39629;51.400;5.494;2023-05-02T12:04:12;102471.28;;;14.58;62.32
47897;BME280;39629;51.400;5.494;2023-05-02T12:09:14;102459.06;;;14.78;63.62
47897;BME280;39629;51.400;5.494;2023-05-02T12:14:25;102471.13;;;14.35;62.23
47897;BME280;39629;51.400;5.494;2023-05-02T12:19:27;102472.06;;;14.43;63.20
47897;BME280;39629;51.400;5.494;2023-05-02T12:24:29;102462.94;;;15.75;58.70
47897;BME280;39629;51.400;5.494;2023-05-02T12:29:38;102474.91;;;14.77;57.56
47897;BME280;39629;51.400;5.494;2023-05-02T12:34:40;102500.28;;;14.41;57.39
47897;BME280;39629;51.400;5.494;2023-05-02T12:39:42;102489.66;;;14.33;60.12
47897;BME280;39629;51.400;5.494;2023-05-02T12:44:46;102496.97;;;14.73;58.23
47897;BME280;39629;51.400;5.494;2023-05-02T12:49:49;102507.25;;;14.31;58.27
47897;BME280;39629;51.400;5.494;2023-05-02T12:54:50;102509.94;;;14.33;57.75
47897;BME280;39629;51.400;5.494;2023-05-02T12:59:53;102505.25;;;15.22;53.89
47897;BME280;39629;51.400;5.494;2023-05-02T13:04:55;102499.06;;;15.28;54.13
47897;BME280;39629;51.400;5.494;2023-05-02T13:09:57;102487.75;;;16.76;55.90
47897;BME280;39629;51.400;5.494;2023-05-02T13:14:59;102501.66;;;15.12;52.14
47897;BME280;39629;51.400;5.494;2023-05-02T13:20:01;102501.78;;;15.43;49.53
47897;BME280;39629;51.400;5.494;2023-05-02T13:25:04;102506.00;;;15.09;45.70
47897;BME280;39629;51.400;5.494;2023-05-02T13:30:08;102507.22;;;15.96;44.50
47897;BME280;39629;51.400;5.494;2023-05-02T13:35:11;102504.63;;;16.34;44.41
47897;BME280;39629;51.400;5.494;2023-05-02T13:40:13;102508.03;;;15.65;45.55
47897;BME280;39629;51.400;5.494;2023-05-02T13:45:16;102512.53;;;16.00;44.56
47897;BME280;39629;51.400;5.494;2023-05-02T13:50:17;102513.34;;;15.59;43.24
47897;BME280;39629;51.400;5.494;2023-05-02T13:55:19;102513.25;;;15.41;44.48
47897;BME280;39629;51.400;5.494;2023-05-02T14:00:22;102507.25;;;16.55;42.90
47897;BME280;39629;51.400;5.494;2023-05-02T14:05:24;102521.38;;;15.87;41.38
47897;BME280;39629;51.400;5.494;2023-05-02T14:10:25;102512.44;;;15.46;40.00
47897;BME280;39629;51.400;5.494;2023-05-02T14:15:28;102503.59;;;15.55;41.56
47897;BME280;39629;51.400;5.494;2023-05-02T14:20:30;102511.47;;;15.37;42.15
47897;BME280;39629;51.400;5.494;2023-05-02T14:25:31;102498.34;;;15.83;42.80
47897;BME280;39629;51.400;5.494;2023-05-02T14:30:34;102494.84;;;16.67;42.57
47897;BME280;39629;51.400;5.494;2023-05-02T14:35:36;102497.38;;;15.55;40.96
47897;BME280;39629;51.400;5.494;2023-05-02T14:40:37;102495.72;;;16.17;39.98
47897;BME280;39629;51.400;5.494;2023-05-02T14:45:40;102503.56;;;15.47;40.74
47897;BME280;39629;51.400;5.494;2023-05-02T14:50:42;102493.09;;;16.56;42.72
47897;BME280;39629;51.400;5.494;2023-05-02T14:55:44;102495.72;;;16.18;42.10
47897;BME280;39629;51.400;5.494;2023-05-02T15:00:46;102493.97;;;16.62;41.44
47897;BME280;39629;51.400;5.494;2023-05-02T15:05:48;102480.66;;;16.67;44.23
47897;BME280;39629;51.400;5.494;2023-05-02T15:10:50;102491.34;;;16.44;39.72
47897;BME280;39629;51.400;5.494;2023-05-02T15:15:53;102488.56;;;15.57;41.39
47897;BME280;39629;51.400;5.494;2023-05-02T15:20:54;102500.56;;;14.81;41.68
47897;BME280;39629;51.400;5.494;2023-05-02T15:25:56;102487.59;;;15.27;42.12
47897;BME280;39629;51.400;5.494;2023-05-02T15:30:59;102493.84;;;15.51;42.92
47897;BME280;39629;51.400;5.494;2023-05-02T15:36:00;102496.56;;;15.83;41.18
47897;BME280;39629;51.400;5.494;2023-05-02T15:41:02;102499.16;;;15.48;43.11
47897;BME280;39629;51.400;5.494;2023-05-02T15:46:05;102496.41;;;15.20;44.01
47897;BME280;39629;51.400;5.494;2023-05-02T15:51:07;102496.28;;;15.05;43.40
47897;BME280;39629;51.400;5.494;2023-05-02T15:56:10;102502.63;;;15.35;41.53
47897;BME280;39629;51.400;5.494;2023-05-02T16:01:13;102500.53;;;14.78;44.46
47897;BME280;39629;51.400;5.494;2023-05-02T16:06:15;102499.66;;;14.77;43.55
47897;BME280;39629;51.400;5.494;2023-05-02T16:11:16;102514.63;;;14.69;43.72
47897;BME280;39629;51.400;5.494;2023-05-02T16:16:19;102507.38;;;14.43;45.14
47897;BME280;39629;51.400;5.494;2023-05-02T16:21:21;102515.94;;;14.13;46.76
47897;BME280;39629;51.400;5.494;2023-05-02T16:26:23;102517.06;;;14.41;45.32
47897;BME280;39629;51.400;5.494;2023-05-02T16:31:26;102511.09;;;13.72;46.72
47897;BME280;39629;51.400;5.494;2023-05-02T16:36:27;102522.59;;;13.75;47.44
47897;BME280;39629;51.400;5.494;2023-05-02T16:41:33;102523.53;;;13.79;47.50
47897;BME280;39629;51.400;5.494;2023-05-02T16:46:36;102514.56;;;13.66;49.43
47897;BME280;39629;51.400;5.494;2023-05-02T16:51:37;102528.97;;;13.19;48.23
47897;BME280;39629;51.400;5.494;2023-05-02T16:56:39;102522.19;;;13.40;49.25
47897;BME280;39629;51.400;5.494;2023-05-02T17:01:42;102529.16;;;13.35;48.70
47897;BME280;39629;51.400;5.494;2023-05-02T17:06:43;102537.69;;;13.12;50.57
47897;BME280;39629;51.400;5.494;2023-05-02T17:11:46;102539.16;;;12.91;49.60
47897;BME280;39629;51.400;5.494;2023-05-02T17:16:49;102531.44;;;13.05;50.56
47897;BME280;39629;51.400;5.494;2023-05-02T17:21:51;102539.06;;;12.87;49.34
47897;BME280;39629;51.400;5.494;2023-05-02T17:26:53;102543.34;;;12.77;48.61
47897;BME280;39629;51.400;5.494;2023-05-02T17:31:56;102544.22;;;12.76;49.22
47897;BME280;39629;51.400;5.494;2023-05-02T17:36:59;102544.31;;;12.30;47.57
47897;BME280;39629;51.400;5.494;2023-05-02T17:42:01;102543.31;;;12.22;49.15
47897;BME280;39629;51.400;5.494;2023-05-02T17:47:04;102545.25;;;12.34;47.20
47897;BME280;39629;51.400;5.494;2023-05-02T17:52:06;102539.53;;;12.09;47.85
47897;BME280;39629;51.400;5.494;2023-05-02T17:57:07;102547.84;;;11.83;48.16
47897;BME280;39629;51.400;5.494;2023-05-02T18:02:10;102548.03;;;11.92;49.69
47897;BME280;39629;51.400;5.494;2023-05-02T18:07:12;102558.22;;;11.74;49.75
47897;BME280;39629;51.400;5.494;2023-05-02T18:12:13;102569.59;;;11.71;49.62
47897;BME280;39629;51.400;5.494;2023-05-02T18:17:16;102565.72;;;11.52;49.71
47897;BME280;39629;51.400;5.494;2023-05-02T18:22:19;102574.03;;;11.31;52.36
47897;BME280;39629;51.400;5.494;2023-05-02T18:27:21;102574.56;;;11.15;52.89
47897;BME280;39629;51.400;5.494;2023-05-02T18:32:24;102582.94;;;10.97;53.30
47897;BME280;39629;51.400;5.494;2023-05-02T18:37:26;102578.31;;;10.88;56.29
47897;BME280;39629;51.400;5.494;2023-05-02T18:42:30;102587.63;;;10.75;54.76
47897;BME280;39629;51.400;5.494;2023-05-02T18:47:33;102590.81;;;10.62;55.79
47897;BME280;39629;51.400;5.494;2023-05-02T18:52:35;102593.81;;;10.42;55.63
47897;BME280;39629;51.400;5.494;2023-05-02T18:57:37;102605.00;;;10.33;56.42
47897;BME280;39629;51.400;5.494;2023-05-02T19:02:40;102604.53;;;10.15;57.11
47897;BME280;39629;51.400;5.494;2023-05-02T19:07:41;102606.13;;;10.10;56.15
47897;BME280;39629;51.400;5.494;2023-05-02T19:12:44;102611.13;;;10.00;57.51
47897;BME280;39629;51.400;5.494;2023-05-02T19:17:48;102627.34;;;9.85;58.28
47897;BME280;39629;51.400;5.494;2023-05-02T19:22:49;102627.91;;;9.74;59.32
47897;BME280;39629;51.400;5.494;2023-05-02T19:27:51;102621.63;;;9.68;60.08
47897;BME280;39629;51.400;5.494;2023-05-02T19:32:54;102621.13;;;9.51;61.31
47897;BME280;39629;51.400;5.494;2023-05-02T19:37:56;102631.97;;;9.33;64.94
47897;BME280;39629;51.400;5.494;2023-05-02T19:42:58;102637.63;;;9.18;63.73
47897;BME280;39629;51.400;5.494;2023-05-02T19:48:01;102632.84;;;9.05;67.45
47897;BME280;39629;51.400;5.494;2023-05-02T19:53:03;102642.94;;;8.94;68.38
47897;BME280;39629;51.400;5.494;2023-05-02T19:58:04;102646.69;;;8.75;70.29
47897;BME280;39629;51.400;5.494;2023-05-02T20:03:07;102654.41;;;8.71;68.97
47897;BME280;39629;51.400;5.494;2023-05-02T20:08:09;102661.19;;;8.64;71.48
47897;BME280;39629;51.400;5.494;2023-05-02T20:13:10;102667.75;;;8.51;73.54
47897;BME280;39629;51.400;5.494;2023-05-02T20:18:13;102666.72;;;8.47;73.77
47897;BME280;39629;51.400;5.494;2023-05-02T20:23:15;102673.53;;;8.42;74.91
47897;BME280;39629;51.400;5.494;2023-05-02T20:28:16;102676.78;;;8.35;76.16
47897;BME280;39629;51.400;5.494;2023-05-02T20:33:19;102683.50;;;8.27;78.66
47897;BME280;39629;51.400;5.494;2023-05-02T20:38:21;102683.81;;;8.12;80.69
47897;BME280;39629;51.400;5.494;2023-05-02T20:43:23;102690.22;;;7.96;83.61
47897;BME280;39629;51.400;5.494;2023-05-02T20:48:29;102689.94;;;7.88;88.00
47897;BME280;39629;51.400;5.494;2023-05-02T20:53:31;102704.31;;;7.75;89.16
47897;BME280;39629;51.400;5.494;2023-05-02T20:58:33;102713.69;;;7.70;91.17
47897;BME280;39629;51.400;5.494;2023-05-02T21:03:36;102712.38;;;7.59;93.77
47897;BME280;39629;51.400;5.494;2023-05-02T21:08:39;102714.50;;;7.46;94.35
47897;BME280;39629;51.400;5.494;2023-05-02T21:13:42;102720.88;;;7.30;100.00
47897;BME280;39629;51.400;5.494;2023-05-02T21:18:45;102722.94;;;7.17;100.00
47897;BME280;39629;51.400;5.494;2023-05-02T21:23:47;102723.19;;;7.02;100.00
47897;BME280;39629;51.400;5.494;2023-05-02T21:28:48;102723.75;;;6.94;100.00
47897;BME280;39629;51.400;5.494;2023-05-02T21:33:51;102719.09;;;6.87;100.00
47897;BME280;39629;51.400;5.494;2023-05-02T21:38:53;102717.94;;;6.80;100.00
47897;BME280;39629;51.400;5.494;2023-05-02T21:43:54;102722.88;;;6.74;100.00
47897;BME280;39629;51.400;5.494;2023-05-02T21:48:57;102712.66;;;6.59;100.00
47897;BME280;39629;51.400;5.494;2023-05-02T21:53:59;102718.91;;;6.43;100.00
47897;BME280;39629;51.400;5.494;2023-05-02T21:59:00;102714.91;;;6.32;100.00
47897;BME280;39629;51.400;5.494;2023-05-02T22:04:04;102731.47;;;6.13;100.00
47897;BME280;39629;51.400;5.494;2023-05-02T22:09:05;102718.25;;;5.90;100.00
47897;BME280;39629;51.400;5.494;2023-05-02T22:14:08;102720.63;;;5.86;100.00
47897;BME280;39629;51.400;5.494;2023-05-02T22:19:11;102714.81;;;5.91;100.00
47897;BME280;39629;51.400;5.494;2023-05-02T22:24:14;102712.91;;;5.69;100.00
47897;BME280;39629;51.400;5.494;2023-05-02T22:29:16;102721.25;;;5.62;100.00
47897;BME280;39629;51.400;5.494;2023-05-02T22:34:19;102716.72;;;5.58;100.00
47897;BME280;39629;51.400;5.494;2023-05-02T22:39:20;102718.81;;;5.65;100.00
47897;BME280;39629;51.400;5.494;2023-05-02T22:44:22;102717.84;;;5.45;100.00
47897;BME280;39629;51.400;5.494;2023-05-02T22:49:25;102713.09;;;5.36;100.00
47897;BME280;39629;51.400;5.494;2023-05-02T22:54:27;102707.41;;;5.27;100.00
47897;BME280;39629;51.400;5.494;2023-05-02T22:59:29;102702.09;;;5.07;100.00
47897;BME280;39629;51.400;5.494;2023-05-02T23:04:32;102711.03;;;4.94;100.00
47897;BME280;39629;51.400;5.494;2023-05-02T23:09:33;102701.34;;;4.92;100.00
47897;BME280;39629;51.400;5.494;2023-05-02T23:14:35;102706.06;;;4.83;100.00
47897;BME280;39629;51.400;5.494;2023-05-02T23:19:38;102714.50;;;4.77;100.00
47897;BME280;39629;51.400;5.494;2023-05-02T23:24:40;102720.44;;;4.74;100.00
47897;BME280;39629;51.400;5.494;2023-05-02T23:29:41;102711.66;;;4.72;100.00
47897;BME280;39629;51.400;5.494;2023-05-02T23:34:44;102727.16;;;4.69;100.00
47897;BME280;39629;51.400;5.494;2023-05-02T23:39:46;102718.78;;;4.58;100.00
47897;BME280;39629;51.400;5.494;2023-05-02T23:44:48;102724.72;;;4.56;100.00
47897;BME280;39629;51.400;5.494;2023-05-02T23:49:51;102725.94;;;4.30;100.00
47897;BME280;39629;51.400;5.494;2023-05-02T23:54:52;102721.94;;;4.20;100.00
47897;BME280;39629;51.400;5.494;2023-05-02T23:59:54;102721.78;;;4.17;100.00
